Austin, Nevada
Current Conditions -  °F | °C
As of 9:56 PM on Thursday 30 Oct 2014 (Local Time) from KNFL Reporting Station
Overcast Overcast  
Wind Chill: 50°   Ceiling: 19000
Heat Index: 50°   Visibility: 10mi
Dew Point: 28°   Wind: 3mph
Humidity: 43%   Direction: 240°WSW
Pressure: 29.92"   Gusts: NA
Location:  39.49°N, 117.07°W
Report Text: KNFL 310456Z 24003KT 10SM BKN190 OVC230 10/M02 A2992 RMK AO2 SLP106 T01001022
Loading
Personal Weather Stations






























Interactive Weather Map
Tropical Storm Tracking
New forecast layout! Learn more

10-Day Weather Forecast

Advertisements
Track Severe Weather on mobile